createdAt,value
2018-06-14T00:00:17.223Z,81.72
2018-06-14T00:01:17.167Z,81.82
2018-06-14T00:02:17.084Z,82.10
2018-06-14T00:03:17.021Z,82.20
2018-06-14T00:04:16.954Z,82.01
2018-06-14T00:05:16.890Z,81.92
2018-06-14T00:06:16.822Z,82.30
2018-06-14T00:07:16.768Z,82.49
2018-06-14T00:08:16.683Z,82.78
2018-06-14T00:09:16.622Z,82.49
2018-06-14T00:10:16.564Z,82.59
2018-06-14T00:11:16.490Z,82.49
2018-06-14T00:12:16.417Z,82.59
2018-06-14T00:13:16.356Z,83.64
2018-06-14T00:14:16.311Z,83.45
2018-06-14T00:15:16.249Z,82.68
2018-06-14T00:16:16.167Z,82.49
2018-06-14T00:17:16.095Z,82.59
2018-06-14T00:18:16.042Z,82.20
2018-06-14T00:19:15.981Z,81.92
2018-06-14T00:20:15.900Z,81.72
2018-06-14T00:21:15.840Z,81.63
2018-06-14T00:22:15.767Z,81.72
2018-06-14T00:23:15.705Z,82.01
2018-06-14T00:24:15.642Z,81.72
2018-06-14T00:25:15.569Z,82.10
2018-06-14T00:26:15.520Z,81.82
2018-06-14T00:27:15.453Z,81.72
2018-06-14T00:28:15.371Z,82.01
2018-06-14T00:29:15.301Z,81.53
2018-06-14T00:30:15.245Z,82.10
2018-06-14T00:31:15.175Z,82.87
2018-06-14T00:32:15.121Z,82.49
2018-06-14T00:33:15.077Z,82.59
2018-06-14T00:34:14.985Z,82.59
2018-06-14T00:35:14.929Z,82.40
2018-06-14T00:36:14.862Z,82.49
2018-06-14T00:37:14.778Z,82.78
2018-06-14T00:38:14.723Z,82.59
2018-06-14T00:39:14.655Z,82.40
2018-06-14T00:40:14.652Z,82.59
2018-06-14T00:41:14.526Z,82.40
2018-06-14T00:42:14.458Z,82.78
2018-06-14T00:43:14.386Z,82.59
2018-06-14T00:44:14.335Z,82.40
2018-06-14T00:45:14.253Z,82.49
2018-06-14T00:46:14.194Z,82.59
2018-06-14T00:47:14.241Z,82.30
2018-06-14T00:48:14.099Z,82.35
2018-06-14T00:49:14.677Z,82.30
2018-06-14T00:50:13.920Z,82.59
2018-06-14T00:51:13.869Z,82.49
2018-06-14T00:52:13.796Z,81.92
2018-06-14T00:53:13.741Z,81.72
2018-06-14T00:54:13.655Z,82.64
2018-06-14T00:55:13.605Z,82.26
2018-06-14T00:56:13.532Z,82.93
2018-06-14T00:57:13.455Z,82.54
2018-06-14T00:58:13.405Z,82.35
2018-06-14T00:59:13.331Z,82.35
2018-06-14T01:00:13.260Z,82.45
2018-06-14T01:01:13.196Z,83.03
2018-06-14T01:02:13.135Z,82.84
2018-06-14T01:03:13.065Z,82.84
2018-06-14T01:04:12.997Z,82.45
2018-06-14T01:05:12.929Z,82.26
2018-06-14T01:06:12.878Z,82.45
2018-06-14T01:07:12.802Z,82.35
2018-06-14T01:08:12.747Z,81.97
2018-06-14T01:09:12.673Z,81.78
2018-06-14T01:10:12.601Z,81.78
2018-06-14T01:11:12.575Z,82.26
2018-06-14T01:12:12.468Z,82.74
2018-06-14T01:13:12.429Z,82.35
2018-06-14T01:14:12.336Z,82.07
2018-06-14T01:15:12.284Z,81.87
2018-06-14T01:16:12.224Z,81.30
2018-06-14T01:17:12.143Z,81.78
2018-06-14T01:18:12.063Z,82.45
2018-06-14T01:19:12.013Z,83.18
2018-06-14T01:20:11.940Z,83.18
2018-06-14T01:21:11.882Z,83.41
2018-06-14T01:22:11.816Z,82.84
2018-06-14T01:23:11.736Z,83.31
2018-06-14T01:24:11.669Z,83.18
2018-06-14T01:25:11.604Z,83.18
2018-06-14T01:26:11.539Z,83.08
2018-06-14T01:27:11.485Z,83.41
2018-06-14T01:28:11.419Z,83.03
2018-06-14T01:29:11.357Z,82.35
2018-06-14T01:30:11.271Z,81.97
2018-06-14T01:31:11.219Z,82.35
2018-06-14T01:32:11.149Z,81.78
2018-06-14T01:33:11.082Z,81.68
2018-06-14T01:34:11.009Z,82.16
2018-06-14T01:35:10.995Z,82.45
2018-06-14T01:36:10.888Z,82.07
2018-06-14T01:37:10.822Z,82.07
2018-06-14T01:38:10.756Z,82.51
2018-06-14T01:39:10.694Z,82.79
2018-06-14T01:40:10.614Z,83.18
2018-06-14T01:41:10.550Z,83.08
2018-06-14T01:42:10.484Z,82.41
2018-06-14T01:43:10.419Z,81.78
2018-06-14T01:44:10.360Z,81.49
2018-06-14T01:45:10.283Z,81.59
2018-06-14T01:46:10.221Z,81.49
2018-06-14T01:47:10.158Z,82.26
2018-06-14T01:48:10.085Z,81.78
2018-06-14T01:49:10.028Z,81.54
2018-06-14T01:50:09.969Z,82.51
2018-06-14T01:51:09.894Z,82.07
2018-06-14T01:52:09.823Z,81.30
2018-06-14T01:53:09.745Z,81.10
2018-06-14T01:54:09.703Z,80.53
2018-06-14T01:55:09.621Z,81.10
2018-06-14T01:56:09.564Z,80.63
2018-06-14T01:57:09.490Z,81.01
2018-06-14T01:58:09.427Z,80.82
2018-06-14T01:59:09.362Z,80.97
2018-06-14T02:00:09.288Z,81.45
2018-06-14T02:01:09.229Z,82.41
2018-06-14T02:02:09.161Z,82.98
2018-06-14T02:03:09.100Z,83.18
2018-06-14T02:04:09.047Z,82.79
2018-06-14T02:05:08.968Z,82.98
2018-06-14T02:06:08.912Z,82.98
2018-06-14T02:07:08.831Z,82.70
2018-06-14T02:08:08.765Z,82.98
2018-06-14T02:09:08.698Z,82.12
2018-06-14T02:10:08.630Z,82.70
2018-06-14T02:11:08.573Z,82.21
2018-06-14T02:12:08.485Z,82.60
2018-06-14T02:13:08.417Z,82.41
2018-06-14T02:14:08.369Z,81.64
2018-06-14T02:15:08.299Z,82.51
2018-06-14T02:16:08.226Z,82.31
2018-06-14T02:17:08.168Z,82.41
2018-06-14T02:18:08.097Z,82.89
2018-06-14T02:19:08.039Z,83.08
2018-06-14T02:20:07.962Z,82.31
2018-06-14T02:21:07.889Z,82.70
2018-06-14T02:22:07.835Z,81.84
2018-06-14T02:23:07.772Z,81.93
2018-06-14T02:24:07.690Z,81.54
2018-06-14T02:25:07.641Z,82.03
2018-06-14T02:26:07.559Z,81.84
2018-06-14T02:27:07.494Z,81.84
2018-06-14T02:28:07.439Z,81.74
2018-06-14T02:29:07.388Z,81.74
2018-06-14T02:30:07.305Z,81.64
2018-06-14T02:31:07.239Z,82.31
2018-06-14T02:32:07.155Z,82.31
2018-06-14T02:33:07.105Z,82.41
2018-06-14T02:34:07.038Z,81.84
2018-06-14T02:35:06.973Z,82.03
2018-06-14T02:36:06.901Z,81.45
2018-06-14T02:37:06.832Z,81.35
2018-06-14T02:38:06.775Z,81.74
2018-06-14T02:39:06.712Z,81.54
2018-06-14T02:40:06.636Z,81.35
2018-06-14T02:41:06.563Z,80.78
2018-06-14T02:42:06.513Z,80.58
2018-06-14T02:43:06.436Z,81.26
2018-06-14T02:44:06.371Z,80.87
2018-06-14T02:45:06.317Z,81.64
2018-06-14T02:46:06.233Z,81.64
2018-06-14T02:47:06.163Z,81.64
2018-06-14T02:48:06.111Z,81.45
2018-06-14T02:49:06.035Z,81.54
2018-06-14T02:50:05.965Z,81.54
2018-06-14T02:51:05.914Z,80.87
2018-06-14T02:52:05.848Z,80.87
2018-06-14T02:53:05.782Z,80.97
2018-06-14T02:54:05.707Z,81.45
2018-06-14T02:55:05.645Z,81.93
2018-06-14T02:56:05.567Z,81.84
2018-06-14T02:57:05.520Z,81.84
2018-06-14T02:58:05.439Z,81.93
2018-06-14T02:59:05.378Z,82.31
2018-06-14T03:00:05.313Z,82.31
2018-06-14T03:01:05.253Z,82.85
2018-06-14T03:02:05.173Z,83.33
2018-06-14T03:03:05.114Z,83.37
2018-06-14T03:04:05.038Z,83.52
2018-06-14T03:05:04.974Z,83.27
2018-06-14T03:06:04.909Z,82.98
2018-06-14T03:07:04.855Z,82.70
2018-06-14T03:08:04.771Z,82.31
2018-06-14T03:09:04.714Z,82.21
2018-06-14T03:10:04.657Z,82.21
2018-06-14T03:11:04.581Z,82.60
2018-06-14T03:12:04.509Z,82.31
2018-06-14T03:13:04.445Z,82.21
2018-06-14T03:14:04.367Z,81.74
2018-06-14T03:15:04.318Z,82.70
2018-06-14T03:16:04.252Z,82.21
2018-06-14T03:17:04.173Z,82.51
2018-06-14T03:18:04.111Z,82.12
2018-06-14T03:19:04.061Z,81.54
2018-06-14T03:20:03.983Z,82.41
2018-06-14T03:21:03.916Z,83.14
2018-06-14T03:22:03.851Z,83.91
2018-06-14T03:23:03.776Z,83.61
2018-06-14T03:24:03.707Z,83.61
2018-06-14T03:25:03.647Z,83.81
2018-06-14T03:26:03.583Z,83.81
2018-06-14T03:27:03.509Z,84.00
2018-06-14T03:28:03.434Z,83.91
2018-06-14T03:29:03.384Z,83.91
2018-06-14T03:30:03.323Z,83.71
2018-06-14T03:31:03.249Z,84.00
2018-06-14T03:32:03.183Z,83.91
2018-06-14T03:33:03.114Z,83.91
2018-06-14T03:34:03.036Z,83.91
2018-06-14T03:35:02.970Z,83.71
2018-06-14T03:36:02.915Z,84.09
2018-06-14T03:37:02.851Z,83.61
2018-06-14T03:38:02.787Z,83.33
2018-06-14T03:39:02.733Z,83.23
2018-06-14T03:40:02.653Z,83.81
2018-06-14T03:41:02.569Z,83.42
2018-06-14T03:42:02.511Z,83.33
2018-06-14T03:43:02.458Z,83.33
2018-06-14T03:44:02.380Z,83.23
2018-06-14T03:45:02.318Z,83.23
2018-06-14T03:46:02.253Z,83.27
2018-06-14T03:47:02.194Z,83.23
2018-06-14T03:48:02.116Z,83.18
2018-06-14T03:49:02.058Z,82.46
2018-06-14T03:50:01.985Z,82.51
2018-06-14T03:51:01.909Z,83.14
2018-06-14T03:52:01.947Z,83.61
2018-06-14T03:53:01.785Z,83.14
2018-06-14T03:54:01.716Z,83.52
2018-06-14T03:55:01.646Z,83.52
2018-06-14T03:56:01.586Z,83.23
2018-06-14T03:57:01.509Z,83.33
2018-06-14T03:58:01.445Z,83.61
2018-06-14T03:59:01.383Z,83.61
2018-06-14T04:00:01.312Z,83.52
2018-06-14T04:01:01.241Z,83.42
2018-06-14T04:02:01.191Z,83.33
2018-06-14T04:03:01.104Z,83.23
2018-06-14T04:04:01.037Z,83.42
2018-06-14T04:05:00.968Z,83.33
2018-06-14T04:06:00.914Z,83.33
2018-06-14T04:07:00.846Z,83.33
2018-06-14T04:08:00.785Z,83.52
2018-06-14T04:09:00.724Z,83.61
2018-06-14T04:10:00.694Z,83.23
2018-06-14T04:11:00.588Z,83.61
2018-06-14T04:12:00.513Z,84.38
2018-06-14T04:13:00.443Z,84.09
2018-06-14T04:14:00.364Z,84.28
2018-06-14T04:15:00.302Z,84.19
2018-06-14T04:16:00.244Z,83.81
2018-06-14T04:17:00.170Z,83.91
2018-06-14T04:18:00.131Z,83.71
2018-06-14T04:19:00.040Z,83.33
2018-06-14T04:19:59.975Z,83.33
2018-06-14T04:20:59.915Z,83.33
2018-06-14T04:21:59.845Z,83.52
2018-06-14T04:22:59.769Z,83.14
2018-06-14T04:23:59.710Z,82.94
2018-06-14T04:24:59.638Z,83.04
2018-06-14T04:25:59.579Z,82.75
2018-06-14T04:26:59.500Z,83.04
2018-06-14T04:27:59.441Z,83.33
2018-06-14T04:28:59.375Z,83.33
2018-06-14T04:29:59.302Z,83.71
2018-06-14T04:30:59.243Z,83.04
2018-06-14T04:31:59.171Z,83.61
2018-06-14T04:32:59.106Z,83.42
2018-06-14T04:33:59.075Z,83.61
2018-06-14T04:34:58.967Z,83.23
2018-06-14T04:35:58.908Z,83.23
2018-06-14T04:36:58.842Z,83.33
2018-06-14T04:37:58.783Z,83.81
2018-06-14T04:38:58.705Z,84.00
2018-06-14T04:39:58.651Z,83.71
2018-06-14T04:40:58.580Z,83.33
2018-06-14T04:41:58.510Z,83.14
2018-06-14T04:42:58.457Z,84.00
2018-06-14T04:43:58.371Z,83.61
2018-06-14T04:44:58.308Z,83.91
2018-06-14T04:45:58.230Z,83.33
2018-06-14T04:46:58.173Z,83.71
2018-06-14T04:47:58.109Z,83.23
2018-06-14T04:48:58.029Z,83.81
2018-06-14T04:49:57.972Z,83.71
2018-06-14T04:50:57.903Z,83.71
2018-06-14T04:51:57.847Z,83.14
2018-06-14T04:52:57.776Z,83.42
2018-06-14T04:53:57.689Z,83.52
2018-06-14T04:54:57.625Z,83.61
2018-06-14T04:55:57.569Z,83.81
2018-06-14T04:56:57.501Z,83.61
2018-06-14T04:57:57.440Z,83.38
2018-06-14T04:58:57.358Z,83.33
2018-06-14T04:59:57.302Z,83.52
2018-06-14T05:00:57.240Z,83.23
2018-06-14T05:01:57.169Z,83.14
2018-06-14T05:02:57.101Z,83.04
2018-06-14T05:03:57.040Z,83.04
2018-06-14T05:04:56.974Z,82.85
2018-06-14T05:05:56.897Z,83.04
2018-06-14T05:06:56.836Z,82.94
2018-06-14T05:07:56.765Z,82.56
2018-06-14T05:08:56.703Z,83.33
2018-06-14T05:09:56.624Z,82.56
2018-06-14T05:10:56.557Z,82.56
2018-06-14T05:11:56.494Z,82.46
2018-06-14T05:12:56.427Z,82.46
2018-06-14T05:13:56.373Z,82.85
2018-06-14T05:14:56.288Z,82.42
2018-06-14T05:15:56.224Z,82.18
2018-06-14T05:16:56.151Z,82.46
2018-06-14T05:17:56.100Z,81.70
2018-06-14T05:18:56.036Z,82.18
2018-06-14T05:19:55.959Z,81.89
2018-06-14T05:20:55.912Z,81.89
2018-06-14T05:21:55.824Z,81.89
2018-06-14T05:22:55.770Z,81.60
2018-06-14T05:23:55.687Z,81.60
2018-06-14T05:24:55.625Z,81.60
2018-06-14T05:25:55.562Z,81.12
2018-06-14T05:26:55.497Z,80.79
2018-06-14T05:27:55.417Z,81.18
2018-06-14T05:28:55.397Z,81.22
2018-06-14T05:29:55.296Z,81.31
2018-06-14T05:30:55.227Z,81.22
2018-06-14T05:31:55.162Z,80.64
2018-06-14T05:32:55.100Z,80.83
2018-06-14T05:33:55.032Z,81.22
2018-06-14T05:34:54.967Z,81.22
2018-06-14T05:35:54.903Z,80.45
2018-06-14T05:36:54.836Z,81.31
2018-06-14T05:37:54.760Z,80.55
2018-06-14T05:38:54.738Z,80.45
2018-06-14T05:39:54.624Z,81.12
2018-06-14T05:40:54.562Z,81.26
2018-06-14T05:41:54.503Z,81.07
2018-06-14T05:42:54.436Z,81.07
2018-06-14T05:43:54.363Z,81.07
2018-06-14T05:44:54.304Z,81.26
2018-06-14T05:45:54.237Z,81.26
2018-06-14T05:46:54.203Z,81.35
2018-06-14T05:47:54.092Z,81.26
2018-06-14T05:48:54.025Z,80.78
2018-06-14T05:49:53.965Z,81.35
2018-06-14T05:50:53.937Z,80.78
2018-06-14T05:51:53.832Z,80.91
2018-06-14T05:52:53.768Z,81.01
2018-06-14T05:53:53.704Z,81.49
2018-06-14T05:54:53.639Z,80.63
2018-06-14T05:55:53.572Z,80.05
2018-06-14T05:56:53.500Z,80.34
2018-06-14T05:57:53.439Z,80.91
2018-06-14T05:58:53.371Z,81.10
2018-06-14T05:59:53.317Z,80.82
2018-06-14T06:00:53.235Z,79.96
2018-06-14T06:01:53.179Z,80.24
2018-06-14T06:02:53.132Z,80.34
2018-06-14T06:03:53.044Z,80.43
2018-06-14T06:04:52.987Z,79.96
2018-06-14T06:05:52.906Z,79.61
2018-06-14T06:06:52.853Z,79.71
2018-06-14T06:07:52.781Z,79.32
2018-06-14T06:08:52.716Z,79.42
2018-06-14T06:09:52.658Z,78.55
2018-06-14T06:10:52.598Z,79.13
2018-06-14T06:11:52.544Z,79.80
2018-06-14T06:12:52.485Z,79.52
2018-06-14T06:13:52.386Z,79.32
2018-06-14T06:14:52.333Z,79.13
2018-06-14T06:15:52.271Z,79.32
2018-06-14T06:16:52.187Z,79.22
2018-06-14T06:17:52.131Z,79.32
2018-06-14T06:18:52.071Z,79.52
2018-06-14T06:19:52.051Z,78.75
2018-06-14T06:20:51.933Z,78.75
2018-06-14T06:21:51.876Z,78.94
2018-06-14T06:22:51.813Z,78.65
2018-06-14T06:23:51.735Z,78.21
2018-06-14T06:24:51.698Z,77.50
2018-06-14T06:25:51.609Z,77.92
2018-06-14T06:26:51.549Z,77.63
2018-06-14T06:27:51.476Z,78.02
2018-06-14T06:28:51.411Z,78.50
2018-06-14T06:29:51.362Z,78.45
2018-06-14T06:30:51.288Z,78.45
2018-06-14T06:31:51.229Z,78.65
2018-06-14T06:32:51.147Z,78.88
2018-06-14T06:33:51.098Z,78.02
2018-06-14T06:34:51.030Z,78.65
2018-06-14T06:35:50.950Z,78.45
2018-06-14T06:36:50.902Z,78.36
2018-06-14T06:37:50.831Z,78.50
2018-06-14T06:38:50.781Z,78.59
2018-06-14T06:39:50.694Z,78.50
2018-06-14T06:40:50.646Z,77.63
2018-06-14T06:41:50.575Z,77.83
2018-06-14T06:42:50.514Z,77.83
2018-06-14T06:43:50.439Z,78.02
2018-06-14T06:44:50.401Z,77.63
2018-06-14T06:45:50.303Z,77.67
2018-06-14T06:46:50.263Z,77.15
2018-06-14T06:47:50.179Z,76.96
2018-06-14T06:48:50.119Z,76.86
2018-06-14T06:49:50.052Z,77.25
2018-06-14T06:50:49.994Z,77.83
2018-06-14T06:51:49.920Z,77.73
2018-06-14T06:52:49.888Z,77.83
2018-06-14T06:53:49.796Z,77.63
2018-06-14T06:54:49.739Z,78.11
2018-06-14T06:55:49.663Z,78.02
2018-06-14T06:56:49.601Z,77.83
2018-06-14T06:57:49.531Z,78.02
2018-06-14T06:58:49.521Z,78.88
2018-06-14T06:59:49.402Z,78.36
2018-06-14T07:00:49.331Z,79.32
2018-06-14T07:01:49.281Z,79.13
2018-06-14T07:02:49.231Z,79.22
2018-06-14T07:03:49.156Z,79.52
2018-06-14T07:04:49.080Z,78.98
2018-06-14T07:05:49.022Z,78.59
2018-06-14T07:06:48.962Z,78.30
2018-06-14T07:07:48.896Z,77.53
2018-06-14T07:08:48.826Z,78.30
2018-06-14T07:09:48.765Z,78.59
2018-06-14T07:10:48.703Z,78.69
2018-06-14T07:11:48.630Z,77.63
2018-06-14T07:12:48.580Z,78.40
2018-06-14T07:13:48.507Z,78.78
2018-06-14T07:14:48.463Z,77.63
2018-06-14T07:15:48.377Z,77.83
2018-06-14T07:16:48.305Z,77.34
2018-06-14T07:17:48.267Z,76.90
2018-06-14T07:18:48.184Z,77.34
2018-06-14T07:19:48.124Z,77.83
2018-06-14T07:20:48.050Z,77.53
2018-06-14T07:21:48.066Z,77.92
2018-06-14T07:22:47.923Z,77.44
2018-06-14T07:23:47.850Z,77.58
2018-06-14T07:24:47.788Z,76.23
2018-06-14T07:25:47.735Z,75.46
2018-06-14T07:26:47.695Z,75.46
2018-06-14T07:27:47.605Z,75.11
2018-06-14T07:28:47.529Z,75.27
2018-06-14T07:29:47.469Z,75.07
2018-06-14T07:30:47.395Z,74.98
2018-06-14T07:31:47.342Z,75.37
2018-06-14T07:32:47.265Z,74.98
2018-06-14T07:33:47.218Z,74.92
2018-06-14T07:34:47.144Z,74.88
2018-06-14T07:35:47.079Z,75.02
2018-06-14T07:36:47.013Z,74.92
2018-06-14T07:37:46.954Z,74.63
2018-06-14T07:38:46.895Z,73.86
2018-06-14T07:39:46.813Z,73.67
2018-06-14T07:40:46.766Z,73.47
2018-06-14T07:41:46.687Z,72.90
2018-06-14T07:42:46.635Z,72.80
2018-06-14T07:43:46.564Z,73.77
2018-06-14T07:44:46.500Z,73.67
2018-06-14T07:45:46.446Z,73.28
2018-06-14T07:46:46.376Z,72.90
2018-06-14T07:47:46.336Z,73.51
2018-06-14T07:48:46.233Z,72.55
2018-06-14T07:49:46.183Z,72.26
2018-06-14T07:50:46.117Z,72.17
2018-06-14T07:51:46.056Z,72.45
2018-06-14T07:52:45.990Z,72.45
2018-06-14T07:53:45.923Z,72.94
2018-06-14T07:54:45.856Z,72.36
2018-06-14T07:55:45.795Z,72.36
2018-06-14T07:56:45.733Z,73.47
2018-06-14T07:57:45.658Z,74.73
2018-06-14T07:58:45.595Z,75.56
2018-06-14T07:59:45.546Z,75.40
2018-06-14T08:00:45.484Z,75.31
2018-06-14T08:01:45.412Z,74.54
2018-06-14T08:02:45.353Z,74.19
2018-06-14T08:03:45.286Z,73.42
2018-06-14T08:04:45.220Z,72.65
2018-06-14T08:05:45.143Z,72.45
2018-06-14T08:06:45.098Z,72.17
2018-06-14T08:07:45.035Z,72.52
2018-06-14T08:08:44.965Z,72.65
2018-06-14T08:09:44.906Z,72.26
2018-06-14T08:10:44.840Z,72.36
2018-06-14T08:11:44.779Z,71.69
2018-06-14T08:12:44.777Z,71.88
2018-06-14T08:13:44.651Z,71.11
2018-06-14T08:14:44.587Z,70.86
2018-06-14T08:15:44.506Z,70.37
2018-06-14T08:16:44.499Z,69.89
2018-06-14T08:17:44.385Z,69.22
2018-06-14T08:18:44.331Z,70.09
2018-06-14T08:19:44.299Z,70.28
2018-06-14T08:20:44.207Z,70.76
2018-06-14T08:21:44.143Z,70.43
2018-06-14T08:22:44.064Z,71.01
2018-06-14T08:23:44.008Z,71.24
2018-06-14T08:24:43.949Z,71.14
2018-06-14T08:25:43.876Z,70.86
2018-06-14T08:26:43.824Z,70.76
2018-06-14T08:27:43.770Z,69.89
2018-06-14T08:28:43.686Z,69.79
2018-06-14T08:29:43.635Z,69.45
2018-06-14T08:30:43.573Z,69.31
2018-06-14T08:31:43.521Z,69.06
2018-06-14T08:32:43.439Z,69.73
2018-06-14T08:33:43.386Z,69.15
2018-06-14T08:34:43.320Z,68.87
2018-06-14T08:35:43.260Z,68.19
2018-06-14T08:36:43.179Z,68.38
2018-06-14T08:37:43.119Z,68.58
2018-06-14T08:38:43.063Z,68.68
2018-06-14T08:39:42.988Z,68.68
2018-06-14T08:40:42.938Z,68.58
2018-06-14T08:41:42.869Z,68.58
2018-06-14T08:42:42.808Z,68.77
2018-06-14T08:43:42.752Z,68.68
2018-06-14T08:44:42.710Z,68.68
2018-06-14T08:45:42.627Z,68.87
2018-06-14T08:46:42.541Z,68.96
2018-06-14T08:47:42.498Z,68.96
2018-06-14T08:48:42.417Z,68.87
2018-06-14T08:49:42.367Z,68.87
2018-06-14T08:50:42.298Z,68.58
2018-06-14T08:51:42.236Z,68.80
2018-06-14T08:52:42.181Z,68.48
2018-06-14T08:53:42.109Z,68.10
2018-06-14T08:54:42.042Z,67.94
2018-06-14T08:55:41.987Z,67.84
2018-06-14T08:56:41.919Z,67.16
2018-06-14T08:57:41.881Z,66.88
2018-06-14T08:58:41.804Z,67.07
2018-06-14T08:59:41.724Z,66.78
2018-06-14T09:00:41.661Z,66.43
2018-06-14T09:01:41.601Z,66.62
2018-06-14T09:02:41.556Z,66.88
2018-06-14T09:03:41.478Z,66.39
2018-06-14T09:04:41.413Z,67.07
2018-06-14T09:05:41.347Z,66.78
2018-06-14T09:06:41.289Z,66.72
2018-06-14T09:07:41.217Z,66.72
2018-06-14T09:08:41.154Z,66.49
2018-06-14T09:09:41.107Z,66.14
2018-06-14T09:10:41.048Z,66.88
2018-06-14T09:11:40.966Z,67.07
2018-06-14T09:12:40.909Z,67.36
2018-06-14T09:13:40.854Z,67.74
2018-06-14T09:14:40.792Z,67.84
2018-06-14T09:15:40.732Z,67.65
2018-06-14T09:16:40.659Z,67.84
2018-06-14T09:17:40.597Z,67.55
2018-06-14T09:18:40.576Z,68.13
2018-06-14T09:19:40.477Z,67.20
2018-06-14T09:20:40.414Z,67.00
2018-06-14T09:21:40.359Z,66.91
2018-06-14T09:22:40.295Z,66.82
2018-06-14T09:23:40.210Z,66.14
2018-06-14T09:24:40.166Z,65.95
2018-06-14T09:25:40.099Z,66.62
2018-06-14T09:26:40.035Z,66.82
2018-06-14T09:27:39.990Z,66.91
2018-06-14T09:28:39.905Z,66.82
2018-06-14T09:29:39.846Z,66.91
2018-06-14T09:30:39.783Z,67.00
2018-06-14T09:31:39.722Z,66.82
2018-06-14T09:32:39.666Z,65.98
2018-06-14T09:33:39.608Z,65.66
2018-06-14T09:34:39.590Z,66.52
2018-06-14T09:35:39.477Z,66.43
2018-06-14T09:36:39.408Z,66.08
2018-06-14T09:37:39.345Z,65.78
2018-06-14T09:38:39.289Z,65.88
2018-06-14T09:39:39.226Z,65.50
2018-06-14T09:40:39.154Z,65.59
2018-06-14T09:41:39.084Z,65.69
2018-06-14T09:42:39.028Z,65.40
2018-06-14T09:43:38.967Z,66.24
2018-06-14T09:44:38.907Z,65.95
2018-06-14T09:45:38.856Z,66.14
2018-06-14T09:46:38.794Z,65.40
2018-06-14T09:47:38.713Z,65.88
2018-06-14T09:48:38.708Z,65.01
2018-06-14T09:49:38.597Z,65.14
2018-06-14T09:50:38.561Z,64.08
2018-06-14T09:51:38.472Z,64.28
2018-06-14T09:52:38.422Z,64.37
2018-06-14T09:53:38.351Z,63.79
2018-06-14T09:54:38.281Z,63.79
2018-06-14T09:55:38.231Z,62.92
2018-06-14T09:56:38.165Z,62.82
2018-06-14T09:57:38.097Z,63.60
2018-06-14T09:58:38.033Z,63.63
2018-06-14T09:59:37.979Z,62.76
2018-06-14T10:00:37.918Z,62.37
2018-06-14T10:01:37.847Z,62.95
2018-06-14T10:02:37.792Z,62.08
2018-06-14T10:03:37.729Z,62.86
2018-06-14T10:04:37.663Z,62.28
2018-06-14T10:05:37.598Z,62.28
2018-06-14T10:06:37.552Z,61.99
2018-06-14T10:07:37.484Z,62.37
2018-06-14T10:08:37.420Z,62.73
2018-06-14T10:09:37.357Z,62.54
2018-06-14T10:10:37.287Z,62.63
2018-06-14T10:11:37.228Z,62.73
2018-06-14T10:12:37.167Z,63.34
2018-06-14T10:13:37.110Z,62.76
2018-06-14T10:14:37.047Z,62.28
2018-06-14T10:15:36.978Z,62.66
2018-06-14T10:16:36.922Z,62.76
2018-06-14T10:17:36.846Z,62.28
2018-06-14T10:18:36.803Z,62.57
2018-06-14T10:19:36.736Z,62.66
2018-06-14T10:20:36.673Z,62.28
2018-06-14T10:21:36.646Z,62.47
2018-06-14T10:22:36.557Z,62.47
2018-06-14T10:23:36.480Z,62.76
2018-06-14T10:24:36.439Z,61.80
2018-06-14T10:25:36.359Z,61.41
2018-06-14T10:26:36.305Z,61.80
2018-06-14T10:27:36.237Z,62.76
2018-06-14T10:28:36.175Z,62.37
2018-06-14T10:29:36.110Z,62.47
2018-06-14T10:30:36.040Z,61.60
2018-06-14T10:31:35.997Z,62.76
2018-06-14T10:32:35.926Z,62.57
2018-06-14T10:33:35.858Z,62.57
2018-06-14T10:34:35.854Z,62.57
2018-06-14T10:35:35.734Z,62.66
2018-06-14T10:36:35.685Z,62.47
2018-06-14T10:37:35.615Z,62.57
2018-06-14T10:38:35.556Z,62.37
2018-06-14T10:39:35.497Z,61.83
2018-06-14T10:40:35.436Z,62.02
2018-06-14T10:41:35.382Z,61.73
2018-06-14T10:42:35.314Z,61.05
2018-06-14T10:43:35.270Z,60.86
2018-06-14T10:44:35.178Z,60.86
2018-06-14T10:45:35.133Z,61.05
2018-06-14T10:46:35.055Z,60.93
2018-06-14T10:47:35.005Z,61.51
2018-06-14T10:48:34.946Z,61.51
2018-06-14T10:49:34.872Z,61.92
2018-06-14T10:50:34.811Z,61.15
2018-06-14T10:51:34.753Z,61.44
2018-06-14T10:52:34.697Z,60.86
2018-06-14T10:53:34.627Z,60.47
2018-06-14T10:54:34.561Z,59.99
2018-06-14T10:55:34.498Z,60.06
2018-06-14T10:56:34.445Z,60.47
2018-06-14T10:57:34.385Z,60.38
2018-06-14T10:58:34.324Z,60.44
2018-06-14T10:59:34.246Z,60.93
2018-06-14T11:00:34.201Z,61.31
2018-06-14T11:01:34.135Z,61.02
2018-06-14T11:02:34.065Z,61.02
2018-06-14T11:03:34.014Z,60.35
2018-06-14T11:04:33.951Z,60.44
2018-06-14T11:05:33.879Z,60.18
2018-06-14T11:06:33.829Z,59.70
2018-06-14T11:07:33.761Z,59.89
2018-06-14T11:08:33.689Z,59.80
2018-06-14T11:09:33.640Z,59.70
2018-06-14T11:10:33.564Z,60.44
2018-06-14T11:11:33.501Z,60.09
2018-06-14T11:12:33.437Z,60.09
2018-06-14T11:13:33.384Z,60.28
2018-06-14T11:14:33.317Z,60.18
2018-06-14T11:15:33.261Z,60.09
2018-06-14T11:16:33.202Z,60.18
2018-06-14T11:17:33.129Z,60.28
2018-06-14T11:18:33.062Z,59.80
2018-06-14T11:19:33.016Z,59.80
2018-06-14T11:20:32.954Z,59.70
2018-06-14T11:21:32.967Z,58.93
2018-06-14T11:22:32.816Z,58.35
2018-06-14T11:23:32.753Z,58.25
2018-06-14T11:24:32.717Z,58.45
2018-06-14T11:25:32.634Z,58.25
2018-06-14T11:26:32.583Z,58.35
2018-06-14T11:27:32.535Z,57.96
2018-06-14T11:28:32.456Z,58.45
2018-06-14T11:29:32.390Z,58.25
2018-06-14T11:30:32.332Z,58.73
2018-06-14T11:31:32.261Z,58.93
2018-06-14T11:32:32.208Z,58.93
2018-06-14T11:33:32.144Z,59.22
2018-06-14T11:34:32.073Z,59.31
2018-06-14T11:35:32.018Z,59.22
2018-06-14T11:36:31.953Z,58.93
2018-06-14T11:37:31.883Z,59.31
2018-06-14T11:38:31.821Z,59.02
2018-06-14T11:39:31.830Z,58.83
2018-06-14T11:40:31.708Z,58.93
2018-06-14T11:41:31.649Z,58.86
2018-06-14T11:42:31.581Z,58.57
2018-06-14T11:43:31.523Z,58.18
2018-06-14T11:44:31.456Z,58.67
2018-06-14T11:45:31.387Z,59.25
2018-06-14T11:46:31.338Z,59.22
2018-06-14T11:47:31.279Z,59.12
2018-06-14T11:48:31.201Z,59.22
2018-06-14T11:49:31.145Z,59.15
2018-06-14T11:50:31.085Z,59.34
2018-06-14T11:51:31.016Z,59.34
2018-06-14T11:52:30.972Z,58.95
2018-06-14T11:53:30.894Z,59.34
2018-06-14T11:54:30.844Z,58.67
2018-06-14T11:55:30.781Z,58.67
2018-06-14T11:56:30.715Z,58.86
2018-06-14T11:57:30.643Z,59.15
2018-06-14T11:58:30.597Z,59.34
2018-06-14T11:59:30.536Z,59.15
2018-06-14T12:00:30.468Z,59.05
2018-06-14T12:01:30.406Z,59.25
2018-06-14T12:02:30.336Z,58.86
2018-06-14T12:03:30.278Z,59.25
2018-06-14T12:04:30.214Z,58.76
2018-06-14T12:05:30.168Z,59.34
2018-06-14T12:06:30.089Z,59.15
2018-06-14T12:07:30.040Z,59.05
2018-06-14T12:08:29.972Z,59.34
2018-06-14T12:09:29.916Z,59.34
2018-06-14T12:10:29.853Z,59.08
2018-06-14T12:11:29.791Z,59.47
2018-06-14T12:12:29.724Z,58.80
2018-06-14T12:13:29.657Z,58.40
2018-06-14T12:14:29.597Z,58.40
2018-06-14T12:15:29.528Z,58.31
2018-06-14T12:16:29.475Z,57.73
2018-06-14T12:17:29.405Z,58.12
2018-06-14T12:18:29.345Z,58.40
2018-06-14T12:19:29.290Z,58.40
2018-06-14T12:20:29.274Z,58.31
2018-06-14T12:21:29.199Z,58.12
2018-06-14T12:22:29.102Z,58.31
2018-06-14T12:23:29.029Z,58.50
2018-06-14T12:24:28.966Z,58.12
2018-06-14T12:25:28.917Z,58.31
2018-06-14T12:26:28.856Z,58.21
2018-06-14T12:27:28.836Z,58.12
2018-06-14T12:28:28.729Z,58.50
2018-06-14T12:29:28.676Z,58.02
2018-06-14T12:30:28.614Z,58.40
2018-06-14T12:31:28.544Z,58.21
2018-06-14T12:32:28.505Z,58.40
2018-06-14T12:33:28.417Z,58.50
2018-06-14T12:34:28.349Z,58.21
2018-06-14T12:35:28.295Z,58.40
2018-06-14T12:36:28.246Z,58.12
2018-06-14T12:37:28.171Z,58.40
2018-06-14T12:38:28.122Z,58.80
2018-06-14T12:39:28.067Z,58.50
2018-06-14T12:40:27.987Z,58.12
2018-06-14T12:41:27.952Z,58.31
2018-06-14T12:42:27.865Z,58.70
2018-06-14T12:43:27.799Z,58.89
2018-06-14T12:44:27.737Z,59.28
2018-06-14T12:45:27.680Z,58.70
2018-06-14T12:46:27.628Z,58.63
2018-06-14T12:47:27.567Z,58.31
2018-06-14T12:48:27.485Z,58.31
2018-06-14T12:49:27.432Z,58.12
2018-06-14T12:50:27.373Z,58.31
2018-06-14T12:51:27.309Z,59.47